sensor_id;sensor_type;location;lat;lon;timestamp;P1;durP1;ratioP1;P2;durP2;ratioP2
32894;SDS011;19251;49.484;8.260;2022-11-04T00:02:06;1.30;;;0.62;;
32894;SDS011;19251;49.484;8.260;2022-11-04T00:07:09;1.75;;;0.62;;
32894;SDS011;19251;49.484;8.260;2022-11-04T00:12:31;0.68;;;0.68;;
32894;SDS011;19251;49.484;8.260;2022-11-04T00:17:33;3.67;;;0.50;;
32894;SDS011;19251;49.484;8.260;2022-11-04T00:22:35;0.33;;;0.33;;
32894;SDS011;19251;49.484;8.260;2022-11-04T00:28:01;0.68;;;0.68;;
32894;SDS011;19251;49.484;8.260;2022-11-04T00:33:23;3.10;;;0.95;;
32894;SDS011;19251;49.484;8.260;2022-11-04T00:38:28;0.77;;;0.65;;
32894;SDS011;19251;49.484;8.260;2022-11-04T00:43:30;5.70;;;0.80;;
32894;SDS011;19251;49.484;8.260;2022-11-04T00:48:32;0.77;;;0.63;;
32894;SDS011;19251;49.484;8.260;2022-11-04T00:53:34;0.80;;;0.70;;
32894;SDS011;19251;49.484;8.260;2022-11-04T00:58:36;0.85;;;0.62;;
32894;SDS011;19251;49.484;8.260;2022-11-04T01:03:38;1.10;;;0.68;;
32894;SDS011;19251;49.484;8.260;2022-11-04T01:08:41;0.80;;;0.43;;
32894;SDS011;19251;49.484;8.260;2022-11-04T01:13:43;1.48;;;0.73;;
32894;SDS011;19251;49.484;8.260;2022-11-04T01:18:45;1.40;;;0.30;;
32894;SDS011;19251;49.484;8.260;2022-11-04T01:23:47;2.90;;;0.95;;
32894;SDS011;19251;49.484;8.260;2022-11-04T01:28:50;0.62;;;0.47;;
32894;SDS011;19251;49.484;8.260;2022-11-04T01:33:55;2.83;;;1.02;;
32894;SDS011;19251;49.484;8.260;2022-11-04T01:38:58;2.08;;;0.55;;
32894;SDS011;19251;49.484;8.260;2022-11-04T01:44:01;3.42;;;0.77;;
32894;SDS011;19251;49.484;8.260;2022-11-04T01:54:26;3.50;;;0.75;;
32894;SDS011;19251;49.484;8.260;2022-11-04T01:59:32;1.25;;;0.82;;
32894;SDS011;19251;49.484;8.260;2022-11-04T02:04:38;3.37;;;0.80;;
32894;SDS011;19251;49.484;8.260;2022-11-04T02:09:41;3.55;;;1.20;;
32894;SDS011;19251;49.484;8.260;2022-11-04T02:14:45;2.70;;;0.77;;
32894;SDS011;19251;49.484;8.260;2022-11-04T02:30:18;5.53;;;1.00;;
32894;SDS011;19251;49.484;8.260;2022-11-04T02:35:28;1.87;;;0.82;;
32894;SDS011;19251;49.484;8.260;2022-11-04T02:41:24;8.25;;;1.35;;
32894;SDS011;19251;49.484;8.260;2022-11-04T02:46:15;7.70;;;1.27;;
32894;SDS011;19251;49.484;8.260;2022-11-04T02:51:39;4.25;;;1.55;;
32894;SDS011;19251;49.484;8.260;2022-11-04T02:56:46;3.17;;;0.70;;
32894;SDS011;19251;49.484;8.260;2022-11-04T03:01:51;4.12;;;1.48;;
32894;SDS011;19251;49.484;8.260;2022-11-04T03:06:56;5.43;;;1.23;;
32894;SDS011;19251;49.484;8.260;2022-11-04T03:12:04;3.13;;;1.03;;
32894;SDS011;19251;49.484;8.260;2022-11-04T03:17:14;2.30;;;0.83;;
32894;SDS011;19251;49.484;8.260;2022-11-04T03:38:20;2.03;;;0.40;;
32894;SDS011;19251;49.484;8.260;2022-11-04T03:43:24;5.37;;;0.87;;
32894;SDS011;19251;49.484;8.260;2022-11-04T03:48:28;6.03;;;1.37;;
32894;SDS011;19251;49.484;8.260;2022-11-04T03:53:30;6.28;;;0.93;;
32894;SDS011;19251;49.484;8.260;2022-11-04T04:03:58;2.30;;;0.50;;
32894;SDS011;19251;49.484;8.260;2022-11-04T04:14:44;4.90;;;1.03;;
32894;SDS011;19251;49.484;8.260;2022-11-04T04:19:56;3.13;;;0.80;;
32894;SDS011;19251;49.484;8.260;2022-11-04T04:25:07;2.57;;;1.00;;
32894;SDS011;19251;49.484;8.260;2022-11-04T04:35:33;1.77;;;0.40;;
32894;SDS011;19251;49.484;8.260;2022-11-04T04:40:54;2.70;;;0.90;;
32894;SDS011;19251;49.484;8.260;2022-11-04T04:46:22;3.90;;;0.45;;
32894;SDS011;19251;49.484;8.260;2022-11-04T04:51:25;3.00;;;0.40;;
32894;SDS011;19251;49.484;8.260;2022-11-04T04:56:27;1.35;;;0.62;;
32894;SDS011;19251;49.484;8.260;2022-11-04T05:01:29;2.03;;;0.55;;
32894;SDS011;19251;49.484;8.260;2022-11-04T05:06:31;6.40;;;0.98;;
32894;SDS011;19251;49.484;8.260;2022-11-04T05:11:34;3.03;;;0.65;;
32894;SDS011;19251;49.484;8.260;2022-11-04T05:16:36;1.92;;;0.68;;
32894;SDS011;19251;49.484;8.260;2022-11-04T05:21:41;5.97;;;1.17;;
32894;SDS011;19251;49.484;8.260;2022-11-04T05:26:44;7.03;;;1.23;;
32894;SDS011;19251;49.484;8.260;2022-11-04T05:31:46;2.22;;;1.10;;
32894;SDS011;19251;49.484;8.260;2022-11-04T05:36:48;2.22;;;1.37;;
32894;SDS011;19251;49.484;8.260;2022-11-04T05:41:50;6.03;;;1.35;;
32894;SDS011;19251;49.484;8.260;2022-11-04T05:46:53;2.97;;;0.75;;
32894;SDS011;19251;49.484;8.260;2022-11-04T05:51:55;2.65;;;1.70;;
32894;SDS011;19251;49.484;8.260;2022-11-04T05:56:57;5.78;;;1.60;;
32894;SDS011;19251;49.484;8.260;2022-11-04T06:01:59;3.07;;;1.27;;
32894;SDS011;19251;49.484;8.260;2022-11-04T06:07:02;4.57;;;1.37;;
32894;SDS011;19251;49.484;8.260;2022-11-04T06:12:11;5.90;;;1.45;;
32894;SDS011;19251;49.484;8.260;2022-11-04T06:17:18;2.05;;;0.80;;
32894;SDS011;19251;49.484;8.260;2022-11-04T06:22:21;3.25;;;1.40;;
32894;SDS011;19251;49.484;8.260;2022-11-04T06:27:23;3.90;;;1.05;;
32894;SDS011;19251;49.484;8.260;2022-11-04T06:32:25;4.27;;;1.60;;
32894;SDS011;19251;49.484;8.260;2022-11-04T06:37:28;9.30;;;2.45;;
32894;SDS011;19251;49.484;8.260;2022-11-04T06:42:30;6.75;;;2.35;;
32894;SDS011;19251;49.484;8.260;2022-11-04T06:47:32;7.62;;;1.30;;
32894;SDS011;19251;49.484;8.260;2022-11-04T06:52:34;3.42;;;1.30;;
32894;SDS011;19251;49.484;8.260;2022-11-04T06:57:43;5.55;;;1.85;;
32894;SDS011;19251;49.484;8.260;2022-11-04T07:02:45;2.17;;;1.20;;
32894;SDS011;19251;49.484;8.260;2022-11-04T07:07:47;5.03;;;1.20;;
32894;SDS011;19251;49.484;8.260;2022-11-04T07:12:49;3.30;;;1.55;;
32894;SDS011;19251;49.484;8.260;2022-11-04T07:17:51;2.70;;;1.00;;
32894;SDS011;19251;49.484;8.260;2022-11-04T07:22:53;5.22;;;0.80;;
32894;SDS011;19251;49.484;8.260;2022-11-04T07:27:55;1.85;;;0.88;;
32894;SDS011;19251;49.484;8.260;2022-11-04T07:33:03;5.23;;;1.00;;
32894;SDS011;19251;49.484;8.260;2022-11-04T07:38:05;1.20;;;0.57;;
32894;SDS011;19251;49.484;8.260;2022-11-04T07:43:08;3.67;;;1.17;;
32894;SDS011;19251;49.484;8.260;2022-11-04T07:48:10;3.95;;;1.25;;
32894;SDS011;19251;49.484;8.260;2022-11-04T07:53:13;1.98;;;1.15;;
32894;SDS011;19251;49.484;8.260;2022-11-04T07:58:15;3.37;;;1.30;;
32894;SDS011;19251;49.484;8.260;2022-11-04T08:03:21;11.07;;;1.57;;
32894;SDS011;19251;49.484;8.260;2022-11-04T08:08:24;3.80;;;1.75;;
32894;SDS011;19251;49.484;8.260;2022-11-04T08:13:27;5.67;;;1.07;;
32894;SDS011;19251;49.484;8.260;2022-11-04T08:18:31;2.63;;;1.13;;
32894;SDS011;19251;49.484;8.260;2022-11-04T08:23:34;2.03;;;1.40;;
32894;SDS011;19251;49.484;8.260;2022-11-04T08:28:36;6.70;;;1.73;;
32894;SDS011;19251;49.484;8.260;2022-11-04T08:33:39;2.80;;;1.13;;
32894;SDS011;19251;49.484;8.260;2022-11-04T08:43:45;4.43;;;1.37;;
32894;SDS011;19251;49.484;8.260;2022-11-04T08:48:47;5.60;;;1.12;;
32894;SDS011;19251;49.484;8.260;2022-11-04T08:53:50;1.77;;;0.95;;
32894;SDS011;19251;49.484;8.260;2022-11-04T08:58:52;3.47;;;1.00;;
32894;SDS011;19251;49.484;8.260;2022-11-04T09:08:57;3.65;;;1.35;;
32894;SDS011;19251;49.484;8.260;2022-11-04T09:14:04;1.37;;;0.80;;
32894;SDS011;19251;49.484;8.260;2022-11-04T09:19:06;6.20;;;1.52;;
32894;SDS011;19251;49.484;8.260;2022-11-04T09:24:09;18.35;;;2.10;;
32894;SDS011;19251;49.484;8.260;2022-11-04T09:29:12;4.28;;;1.15;;
32894;SDS011;19251;49.484;8.260;2022-11-04T09:34:14;8.87;;;1.13;;
32894;SDS011;19251;49.484;8.260;2022-11-04T09:39:16;5.30;;;1.90;;
32894;SDS011;19251;49.484;8.260;2022-11-04T09:50:17;2.17;;;1.00;;
32894;SDS011;19251;49.484;8.260;2022-11-04T09:55:34;5.43;;;1.35;;
32894;SDS011;19251;49.484;8.260;2022-11-04T10:00:43;3.85;;;1.33;;
32894;SDS011;19251;49.484;8.260;2022-11-04T10:06:37;3.70;;;1.00;;
32894;SDS011;19251;49.484;8.260;2022-11-04T10:11:22;4.30;;;1.35;;
32894;SDS011;19251;49.484;8.260;2022-11-04T10:16:50;8.20;;;1.45;;
32894;SDS011;19251;49.484;8.260;2022-11-04T10:22:10;2.22;;;0.88;;
32894;SDS011;19251;49.484;8.260;2022-11-04T10:27:25;6.50;;;1.30;;
32894;SDS011;19251;49.484;8.260;2022-11-04T10:32:35;6.57;;;1.75;;
32894;SDS011;19251;49.484;8.260;2022-11-04T10:37:41;1.50;;;1.10;;
32894;SDS011;19251;49.484;8.260;2022-11-04T10:42:43;6.75;;;1.65;;
32894;SDS011;19251;49.484;8.260;2022-11-04T10:47:55;2.37;;;0.95;;
32894;SDS011;19251;49.484;8.260;2022-11-04T10:58:20;10.57;;;2.45;;
32894;SDS011;19251;49.484;8.260;2022-11-04T11:03:31;4.60;;;1.42;;
32894;SDS011;19251;49.484;8.260;2022-11-04T11:08:35;2.75;;;1.10;;
32894;SDS011;19251;49.484;8.260;2022-11-04T11:13:39;3.62;;;1.02;;
32894;SDS011;19251;49.484;8.260;2022-11-04T11:19:07;5.93;;;1.90;;
32894;SDS011;19251;49.484;8.260;2022-11-04T11:24:25;5.97;;;1.23;;
32894;SDS011;19251;49.484;8.260;2022-11-04T11:29:31;5.43;;;1.67;;
32894;SDS011;19251;49.484;8.260;2022-11-04T11:34:45;6.78;;;1.75;;
32894;SDS011;19251;49.484;8.260;2022-11-04T11:39:49;7.43;;;1.95;;
32894;SDS011;19251;49.484;8.260;2022-11-04T11:44:52;4.93;;;1.73;;
32894;SDS011;19251;49.484;8.260;2022-11-04T12:00:21;3.85;;;1.27;;
32894;SDS011;19251;49.484;8.260;2022-11-04T12:05:42;3.72;;;1.20;;
32894;SDS011;19251;49.484;8.260;2022-11-04T12:11:17;6.50;;;3.08;;
32894;SDS011;19251;49.484;8.260;2022-11-04T12:16:50;5.30;;;1.58;;
32894;SDS011;19251;49.484;8.260;2022-11-04T12:27:48;5.15;;;1.90;;
32894;SDS011;19251;49.484;8.260;2022-11-04T12:32:57;4.82;;;1.20;;
32894;SDS011;19251;49.484;8.260;2022-11-04T12:38:54;6.37;;;2.15;;
32894;SDS011;19251;49.484;8.260;2022-11-04T12:49:06;2.83;;;1.35;;
32894;SDS011;19251;49.484;8.260;2022-11-04T12:54:40;3.87;;;1.45;;
32894;SDS011;19251;49.484;8.260;2022-11-04T13:05:05;1.85;;;1.05;;
32894;SDS011;19251;49.484;8.260;2022-11-04T13:10:57;1.55;;;1.15;;
32894;SDS011;19251;49.484;8.260;2022-11-04T13:15:44;5.28;;;1.62;;
32894;SDS011;19251;49.484;8.260;2022-11-04T13:21:03;5.37;;;1.40;;
32894;SDS011;19251;49.484;8.260;2022-11-04T13:26:13;2.33;;;0.93;;
32894;SDS011;19251;49.484;8.260;2022-11-04T13:47:21;2.92;;;1.02;;
32894;SDS011;19251;49.484;8.260;2022-11-04T13:52:36;8.57;;;1.40;;
32894;SDS011;19251;49.484;8.260;2022-11-04T13:57:54;3.25;;;1.08;;
32894;SDS011;19251;49.484;8.260;2022-11-04T14:08:22;5.87;;;1.90;;
32894;SDS011;19251;49.484;8.260;2022-11-04T14:18:28;5.53;;;3.10;;
32894;SDS011;19251;49.484;8.260;2022-11-04T14:23:35;6.78;;;2.80;;
32894;SDS011;19251;49.484;8.260;2022-11-04T14:28:40;4.68;;;1.95;;
32894;SDS011;19251;49.484;8.260;2022-11-04T14:33:55;2.70;;;1.70;;
32894;SDS011;19251;49.484;8.260;2022-11-04T14:49:38;7.93;;;2.20;;
32894;SDS011;19251;49.484;8.260;2022-11-04T15:05:33;4.55;;;1.45;;
32894;SDS011;19251;49.484;8.260;2022-11-04T15:10:38;6.62;;;2.17;;
32894;SDS011;19251;49.484;8.260;2022-11-04T15:15:40;7.10;;;1.70;;
32894;SDS011;19251;49.484;8.260;2022-11-04T15:26:26;3.90;;;1.77;;
32894;SDS011;19251;49.484;8.260;2022-11-04T15:31:33;3.15;;;1.27;;
32894;SDS011;19251;49.484;8.260;2022-11-04T15:36:40;5.40;;;2.33;;
32894;SDS011;19251;49.484;8.260;2022-11-04T15:41:44;2.70;;;1.73;;
32894;SDS011;19251;49.484;8.260;2022-11-04T15:52:26;5.35;;;2.10;;
32894;SDS011;19251;49.484;8.260;2022-11-04T15:57:38;4.22;;;2.22;;
32894;SDS011;19251;49.484;8.260;2022-11-04T16:02:45;9.25;;;1.87;;
32894;SDS011;19251;49.484;8.260;2022-11-04T16:07:51;3.80;;;1.90;;
32894;SDS011;19251;49.484;8.260;2022-11-04T16:13:01;8.30;;;2.10;;
32894;SDS011;19251;49.484;8.260;2022-11-04T16:23:30;8.65;;;2.90;;
32894;SDS011;19251;49.484;8.260;2022-11-04T16:28:33;14.63;;;4.90;;
32894;SDS011;19251;49.484;8.260;2022-11-04T16:33:37;12.63;;;4.87;;
32894;SDS011;19251;49.484;8.260;2022-11-04T16:38:39;9.23;;;5.37;;
32894;SDS011;19251;49.484;8.260;2022-11-04T16:43:41;5.87;;;3.62;;
32894;SDS011;19251;49.484;8.260;2022-11-04T16:48:44;6.10;;;3.42;;
32894;SDS011;19251;49.484;8.260;2022-11-04T16:53:52;4.07;;;2.67;;
32894;SDS011;19251;49.484;8.260;2022-11-04T16:58:55;5.00;;;2.33;;
32894;SDS011;19251;49.484;8.260;2022-11-04T17:03:57;7.53;;;2.73;;
32894;SDS011;19251;49.484;8.260;2022-11-04T17:08:59;6.25;;;3.12;;
32894;SDS011;19251;49.484;8.260;2022-11-04T17:14:02;2.92;;;1.85;;
32894;SDS011;19251;49.484;8.260;2022-11-04T17:19:04;3.87;;;1.83;;
32894;SDS011;19251;49.484;8.260;2022-11-04T17:24:06;5.40;;;1.27;;
32894;SDS011;19251;49.484;8.260;2022-11-04T17:29:09;7.05;;;1.37;;
32894;SDS011;19251;49.484;8.260;2022-11-04T17:34:17;6.30;;;1.67;;
32894;SDS011;19251;49.484;8.260;2022-11-04T17:39:20;3.07;;;1.23;;
32894;SDS011;19251;49.484;8.260;2022-11-04T17:44:22;3.60;;;1.23;;
32894;SDS011;19251;49.484;8.260;2022-11-04T17:49:24;3.80;;;1.50;;
32894;SDS011;19251;49.484;8.260;2022-11-04T17:54:28;6.72;;;1.67;;
32894;SDS011;19251;49.484;8.260;2022-11-04T17:59:30;3.73;;;1.30;;
32894;SDS011;19251;49.484;8.260;2022-11-04T18:04:37;5.70;;;1.80;;
32894;SDS011;19251;49.484;8.260;2022-11-04T18:09:40;3.28;;;1.70;;
32894;SDS011;19251;49.484;8.260;2022-11-04T18:14:43;5.60;;;3.20;;
32894;SDS011;19251;49.484;8.260;2022-11-04T18:19:45;8.38;;;3.45;;
32894;SDS011;19251;49.484;8.260;2022-11-04T18:24:47;5.40;;;3.03;;
32894;SDS011;19251;49.484;8.260;2022-11-04T18:29:50;5.03;;;2.85;;
32894;SDS011;19251;49.484;8.260;2022-11-04T18:34:52;9.63;;;3.87;;
32894;SDS011;19251;49.484;8.260;2022-11-04T18:39:54;9.23;;;6.17;;
32894;SDS011;19251;49.484;8.260;2022-11-04T18:44:56;10.82;;;5.03;;
32894;SDS011;19251;49.484;8.260;2022-11-04T18:49:58;9.02;;;5.30;;
32894;SDS011;19251;49.484;8.260;2022-11-04T18:55:01;8.85;;;5.68;;
32894;SDS011;19251;49.484;8.260;2022-11-04T19:00:03;6.78;;;4.87;;
32894;SDS011;19251;49.484;8.260;2022-11-04T19:05:06;5.90;;;3.87;;
32894;SDS011;19251;49.484;8.260;2022-11-04T19:10:10;4.83;;;3.63;;
32894;SDS011;19251;49.484;8.260;2022-11-04T19:15:12;4.85;;;3.83;;
32894;SDS011;19251;49.484;8.260;2022-11-04T19:20:15;6.25;;;3.75;;
32894;SDS011;19251;49.484;8.260;2022-11-04T19:25:17;7.37;;;3.72;;
32894;SDS011;19251;49.484;8.260;2022-11-04T19:30:19;7.28;;;3.05;;
32894;SDS011;19251;49.484;8.260;2022-11-04T19:35:21;4.55;;;2.97;;
32894;SDS011;19251;49.484;8.260;2022-11-04T19:40:23;3.07;;;2.70;;
32894;SDS011;19251;49.484;8.260;2022-11-04T19:45:25;2.20;;;2.00;;
32894;SDS011;19251;49.484;8.260;2022-11-04T19:50:27;2.92;;;2.15;;
32894;SDS011;19251;49.484;8.260;2022-11-04T19:55:30;4.13;;;2.03;;
32894;SDS011;19251;49.484;8.260;2022-11-04T20:00:32;3.20;;;2.10;;
32894;SDS011;19251;49.484;8.260;2022-11-04T20:05:36;4.95;;;1.92;;
32894;SDS011;19251;49.484;8.260;2022-11-04T20:10:40;3.90;;;2.03;;
32894;SDS011;19251;49.484;8.260;2022-11-04T20:15:43;2.83;;;1.97;;
32894;SDS011;19251;49.484;8.260;2022-11-04T20:20:45;3.33;;;1.60;;
32894;SDS011;19251;49.484;8.260;2022-11-04T20:25:47;8.85;;;3.37;;
32894;SDS011;19251;49.484;8.260;2022-11-04T20:30:50;9.02;;;3.15;;
32894;SDS011;19251;49.484;8.260;2022-11-04T20:35:52;11.33;;;4.30;;
32894;SDS011;19251;49.484;8.260;2022-11-04T20:40:54;5.97;;;4.30;;
32894;SDS011;19251;49.484;8.260;2022-11-04T20:45:56;7.25;;;4.15;;
32894;SDS011;19251;49.484;8.260;2022-11-04T20:51:05;10.77;;;5.77;;
32894;SDS011;19251;49.484;8.260;2022-11-04T20:56:13;10.63;;;5.40;;
32894;SDS011;19251;49.484;8.260;2022-11-04T21:01:18;5.73;;;3.67;;
32894;SDS011;19251;49.484;8.260;2022-11-04T21:06:26;14.27;;;7.77;;
32894;SDS011;19251;49.484;8.260;2022-11-04T21:11:29;17.42;;;9.23;;
32894;SDS011;19251;49.484;8.260;2022-11-04T21:16:33;14.77;;;8.30;;
32894;SDS011;19251;49.484;8.260;2022-11-04T21:21:36;11.50;;;6.53;;
32894;SDS011;19251;49.484;8.260;2022-11-04T21:26:38;10.47;;;5.93;;
32894;SDS011;19251;49.484;8.260;2022-11-04T21:31:40;10.68;;;5.20;;
32894;SDS011;19251;49.484;8.260;2022-11-04T21:36:43;7.47;;;4.60;;
32894;SDS011;19251;49.484;8.260;2022-11-04T21:46:48;7.10;;;4.67;;
32894;SDS011;19251;49.484;8.260;2022-11-04T21:51:50;10.02;;;4.32;;
32894;SDS011;19251;49.484;8.260;2022-11-04T21:56:53;6.30;;;3.70;;
32894;SDS011;19251;49.484;8.260;2022-11-04T22:01:56;3.53;;;3.15;;
32894;SDS011;19251;49.484;8.260;2022-11-04T22:07:00;4.07;;;2.93;;
32894;SDS011;19251;49.484;8.260;2022-11-04T22:12:02;5.00;;;3.30;;
32894;SDS011;19251;49.484;8.260;2022-11-04T22:17:05;4.12;;;3.15;;
32894;SDS011;19251;49.484;8.260;2022-11-04T22:22:09;3.67;;;2.33;;
32894;SDS011;19251;49.484;8.260;2022-11-04T22:27:11;2.75;;;2.37;;
32894;SDS011;19251;49.484;8.260;2022-11-04T22:32:13;3.87;;;2.57;;
32894;SDS011;19251;49.484;8.260;2022-11-04T22:37:15;3.60;;;2.50;;
32894;SDS011;19251;49.484;8.260;2022-11-04T22:42:18;6.15;;;2.72;;
32894;SDS011;19251;49.484;8.260;2022-11-04T22:47:20;4.72;;;2.35;;
32894;SDS011;19251;49.484;8.260;2022-11-04T22:52:22;3.83;;;2.97;;
32894;SDS011;19251;49.484;8.260;2022-11-04T22:57:24;4.87;;;1.80;;
32894;SDS011;19251;49.484;8.260;2022-11-04T23:02:27;2.93;;;2.00;;
32894;SDS011;19251;49.484;8.260;2022-11-04T23:07:37;3.13;;;2.43;;
32894;SDS011;19251;49.484;8.260;2022-11-04T23:12:39;3.73;;;1.87;;
32894;SDS011;19251;49.484;8.260;2022-11-04T23:17:59;5.00;;;1.73;;
32894;SDS011;19251;49.484;8.260;2022-11-04T23:23:19;1.83;;;1.63;;
32894;SDS011;19251;49.484;8.260;2022-11-04T23:28:40;2.23;;;1.67;;
32894;SDS011;19251;49.484;8.260;2022-11-04T23:34:00;2.67;;;2.00;;
32894;SDS011;19251;49.484;8.260;2022-11-04T23:39:21;3.90;;;1.73;;
32894;SDS011;19251;49.484;8.260;2022-11-04T23:44:23;5.73;;;1.57;;
32894;SDS011;19251;49.484;8.260;2022-11-04T23:50:00;9.63;;;2.30;;
32894;SDS011;19251;49.484;8.260;2022-11-04T23:55:23;1.90;;;1.50;;
